sensor_id;sensor_type;location;lat;lon;timestamp;temperature;humidity
7159;DHT22;63175;52.374;13.132;2023-09-30T00:00:25;18.30;99.90
7159;DHT22;63175;52.374;13.132;2023-09-30T00:02:52;18.20;99.90
7159;DHT22;63175;52.374;13.132;2023-09-30T00:05:19;18.20;99.90
7159;DHT22;63175;52.374;13.132;2023-09-30T00:07:46;18.10;99.90
7159;DHT22;63175;52.374;13.132;2023-09-30T00:10:13;18.10;99.90
7159;DHT22;63175;52.374;13.132;2023-09-30T00:12:41;18.10;99.90
7159;DHT22;63175;52.374;13.132;2023-09-30T00:15:09;18.00;99.90
7159;DHT22;63175;52.374;13.132;2023-09-30T00:17:36;17.90;99.90
7159;DHT22;63175;52.374;13.132;2023-09-30T00:20:04;17.90;99.90
7159;DHT22;63175;52.374;13.132;2023-09-30T00:22:31;17.80;99.90
7159;DHT22;63175;52.374;13.132;2023-09-30T00:24:58;17.80;99.90
7159;DHT22;63175;52.374;13.132;2023-09-30T00:27:25;17.70;99.90
7159;DHT22;63175;52.374;13.132;2023-09-30T00:29:54;17.70;99.90
7159;DHT22;63175;52.374;13.132;2023-09-30T00:32:20;17.60;99.90
7159;DHT22;63175;52.374;13.132;2023-09-30T00:34:47;17.60;99.90
7159;DHT22;63175;52.374;13.132;2023-09-30T00:37:14;17.60;99.90
7159;DHT22;63175;52.374;13.132;2023-09-30T00:39:41;17.60;99.90
7159;DHT22;63175;52.374;13.132;2023-09-30T00:42:10;17.50;99.90
7159;DHT22;63175;52.374;13.132;2023-09-30T00:44:36;17.50;99.90
7159;DHT22;63175;52.374;13.132;2023-09-30T00:47:05;17.50;99.90
7159;DHT22;63175;52.374;13.132;2023-09-30T00:49:34;17.50;99.90
7159;DHT22;63175;52.374;13.132;2023-09-30T00:52:01;17.50;99.90
7159;DHT22;63175;52.374;13.132;2023-09-30T00:54:29;17.40;99.90
7159;DHT22;63175;52.374;13.132;2023-09-30T00:56:57;17.40;99.90
7159;DHT22;63175;52.374;13.132;2023-09-30T00:59:26;17.40;99.90
7159;DHT22;63175;52.374;13.132;2023-09-30T01:01:54;17.30;99.90
7159;DHT22;63175;52.374;13.132;2023-09-30T01:04:25;17.30;99.90
7159;DHT22;63175;52.374;13.132;2023-09-30T01:06:53;17.30;99.90
7159;DHT22;63175;52.374;13.132;2023-09-30T01:09:20;17.20;99.90
7159;DHT22;63175;52.374;13.132;2023-09-30T01:11:47;17.10;99.90
7159;DHT22;63175;52.374;13.132;2023-09-30T01:14:25;17.10;99.90
7159;DHT22;63175;52.374;13.132;2023-09-30T01:16:52;17.10;99.90
7159;DHT22;63175;52.374;13.132;2023-09-30T01:19:18;17.00;99.90
7159;DHT22;63175;52.374;13.132;2023-09-30T01:21:47;17.00;99.90
7159;DHT22;63175;52.374;13.132;2023-09-30T01:24:14;17.00;99.90
7159;DHT22;63175;52.374;13.132;2023-09-30T01:26:41;16.90;99.90
7159;DHT22;63175;52.374;13.132;2023-09-30T01:29:09;16.90;99.90
7159;DHT22;63175;52.374;13.132;2023-09-30T01:31:36;16.90;99.90
7159;DHT22;63175;52.374;13.132;2023-09-30T01:34:04;16.90;99.90
7159;DHT22;63175;52.374;13.132;2023-09-30T01:36:31;16.80;99.90
7159;DHT22;63175;52.374;13.132;2023-09-30T01:38:59;16.80;99.90
7159;DHT22;63175;52.374;13.132;2023-09-30T01:41:27;16.70;99.90
7159;DHT22;63175;52.374;13.132;2023-09-30T01:43:54;16.70;99.90
7159;DHT22;63175;52.374;13.132;2023-09-30T01:46:22;16.70;99.90
7159;DHT22;63175;52.374;13.132;2023-09-30T01:48:49;16.70;99.90
7159;DHT22;63175;52.374;13.132;2023-09-30T01:51:16;16.70;99.90
7159;DHT22;63175;52.374;13.132;2023-09-30T01:53:43;16.60;99.90
7159;DHT22;63175;52.374;13.132;2023-09-30T01:56:11;16.60;99.90
7159;DHT22;63175;52.374;13.132;2023-09-30T01:58:38;16.60;99.90
7159;DHT22;63175;52.374;13.132;2023-09-30T02:01:05;16.50;99.90
7159;DHT22;63175;52.374;13.132;2023-09-30T02:03:32;16.50;99.90
7159;DHT22;63175;52.374;13.132;2023-09-30T02:05:59;16.50;99.90
7159;DHT22;63175;52.374;13.132;2023-09-30T02:08:26;16.40;99.90
7159;DHT22;63175;52.374;13.132;2023-09-30T02:10:53;16.40;99.90
7159;DHT22;63175;52.374;13.132;2023-09-30T02:13:21;16.40;99.90
7159;DHT22;63175;52.374;13.132;2023-09-30T02:15:48;16.50;99.90
7159;DHT22;63175;52.374;13.132;2023-09-30T02:18:14;16.30;99.90
7159;DHT22;63175;52.374;13.132;2023-09-30T02:20:41;16.30;99.90
7159;DHT22;63175;52.374;13.132;2023-09-30T02:23:10;16.20;99.90
7159;DHT22;63175;52.374;13.132;2023-09-30T02:25:37;16.20;99.90
7159;DHT22;63175;52.374;13.132;2023-09-30T02:28:05;16.20;99.90
7159;DHT22;63175;52.374;13.132;2023-09-30T02:30:33;16.20;99.90
7159;DHT22;63175;52.374;13.132;2023-09-30T02:33:00;16.20;99.90
7159;DHT22;63175;52.374;13.132;2023-09-30T02:35:27;16.10;99.90
7159;DHT22;63175;52.374;13.132;2023-09-30T02:37:54;16.00;99.90
7159;DHT22;63175;52.374;13.132;2023-09-30T02:40:21;16.10;99.90
7159;DHT22;63175;52.374;13.132;2023-09-30T02:42:50;16.00;99.90
7159;DHT22;63175;52.374;13.132;2023-09-30T02:45:18;16.00;99.90
7159;DHT22;63175;52.374;13.132;2023-09-30T02:47:46;16.00;99.90
7159;DHT22;63175;52.374;13.132;2023-09-30T02:50:13;16.00;99.90
7159;DHT22;63175;52.374;13.132;2023-09-30T02:52:40;16.00;99.90
7159;DHT22;63175;52.374;13.132;2023-09-30T02:55:08;15.90;99.90
7159;DHT22;63175;52.374;13.132;2023-09-30T02:57:35;15.90;99.90
7159;DHT22;63175;52.374;13.132;2023-09-30T03:00:02;15.90;99.90
7159;DHT22;63175;52.374;13.132;2023-09-30T03:02:38;15.80;99.90
7159;DHT22;63175;52.374;13.132;2023-09-30T03:05:06;15.80;99.90
7159;DHT22;63175;52.374;13.132;2023-09-30T03:07:33;15.80;99.90
7159;DHT22;63175;52.374;13.132;2023-09-30T03:10:00;15.70;99.90
7159;DHT22;63175;52.374;13.132;2023-09-30T03:12:30;15.70;99.90
7159;DHT22;63175;52.374;13.132;2023-09-30T03:14:58;15.70;99.90
7159;DHT22;63175;52.374;13.132;2023-09-30T03:17:24;15.60;99.90
7159;DHT22;63175;52.374;13.132;2023-09-30T03:19:51;15.60;99.90
7159;DHT22;63175;52.374;13.132;2023-09-30T03:22:20;15.60;99.90
7159;DHT22;63175;52.374;13.132;2023-09-30T03:24:47;15.60;99.90
7159;DHT22;63175;52.374;13.132;2023-09-30T03:27:14;15.50;99.90
7159;DHT22;63175;52.374;13.132;2023-09-30T03:29:41;15.50;99.90
7159;DHT22;63175;52.374;13.132;2023-09-30T03:32:08;15.50;99.90
7159;DHT22;63175;52.374;13.132;2023-09-30T03:34:36;15.50;99.90
7159;DHT22;63175;52.374;13.132;2023-09-30T03:37:03;15.50;99.90
7159;DHT22;63175;52.374;13.132;2023-09-30T03:39:33;15.40;99.90
7159;DHT22;63175;52.374;13.132;2023-09-30T03:42:00;15.40;99.90
7159;DHT22;63175;52.374;13.132;2023-09-30T03:44:28;15.40;99.90
7159;DHT22;63175;52.374;13.132;2023-09-30T03:46:55;15.30;99.90
7159;DHT22;63175;52.374;13.132;2023-09-30T03:49:22;15.30;99.90
7159;DHT22;63175;52.374;13.132;2023-09-30T03:51:49;15.30;99.90
7159;DHT22;63175;52.374;13.132;2023-09-30T03:54:16;15.30;99.90
7159;DHT22;63175;52.374;13.132;2023-09-30T03:56:45;15.30;99.90
7159;DHT22;63175;52.374;13.132;2023-09-30T03:59:13;15.20;99.90
7159;DHT22;63175;52.374;13.132;2023-09-30T04:01:40;15.20;99.90
7159;DHT22;63175;52.374;13.132;2023-09-30T04:04:08;15.20;99.90
7159;DHT22;63175;52.374;13.132;2023-09-30T04:06:35;15.20;99.90
7159;DHT22;63175;52.374;13.132;2023-09-30T04:09:04;15.20;99.90
7159;DHT22;63175;52.374;13.132;2023-09-30T04:11:35;15.20;99.90
7159;DHT22;63175;52.374;13.132;2023-09-30T04:14:04;15.20;99.90
7159;DHT22;63175;52.374;13.132;2023-09-30T04:16:31;15.20;99.90
7159;DHT22;63175;52.374;13.132;2023-09-30T04:18:58;15.20;99.90
7159;DHT22;63175;52.374;13.132;2023-09-30T04:21:26;15.20;99.90
7159;DHT22;63175;52.374;13.132;2023-09-30T04:23:55;15.10;99.90
7159;DHT22;63175;52.374;13.132;2023-09-30T04:26:22;15.10;99.90
7159;DHT22;63175;52.374;13.132;2023-09-30T04:28:49;15.10;99.90
7159;DHT22;63175;52.374;13.132;2023-09-30T04:31:17;15.10;99.90
7159;DHT22;63175;52.374;13.132;2023-09-30T04:33:44;15.10;99.90
7159;DHT22;63175;52.374;13.132;2023-09-30T04:36:11;15.00;99.90
7159;DHT22;63175;52.374;13.132;2023-09-30T04:38:38;15.00;99.90
7159;DHT22;63175;52.374;13.132;2023-09-30T04:41:05;15.00;99.90
7159;DHT22;63175;52.374;13.132;2023-09-30T04:43:33;14.90;99.90
7159;DHT22;63175;52.374;13.132;2023-09-30T04:46:00;14.90;99.90
7159;DHT22;63175;52.374;13.132;2023-09-30T04:48:28;14.90;99.90
7159;DHT22;63175;52.374;13.132;2023-09-30T04:50:55;14.90;99.90
7159;DHT22;63175;52.374;13.132;2023-09-30T04:53:22;14.90;99.90
7159;DHT22;63175;52.374;13.132;2023-09-30T04:55:49;14.80;99.90
7159;DHT22;63175;52.374;13.132;2023-09-30T04:58:17;14.80;99.90
7159;DHT22;63175;52.374;13.132;2023-09-30T05:00:43;14.70;99.90
7159;DHT22;63175;52.374;13.132;2023-09-30T05:03:10;14.70;99.90
7159;DHT22;63175;52.374;13.132;2023-09-30T05:05:39;14.70;99.90
7159;DHT22;63175;52.374;13.132;2023-09-30T05:08:07;14.70;99.90
7159;DHT22;63175;52.374;13.132;2023-09-30T05:10:36;14.70;99.90
7159;DHT22;63175;52.374;13.132;2023-09-30T05:13:04;14.70;99.90
7159;DHT22;63175;52.374;13.132;2023-09-30T05:15:30;14.60;99.90
7159;DHT22;63175;52.374;13.132;2023-09-30T05:17:58;14.60;99.90
7159;DHT22;63175;52.374;13.132;2023-09-30T05:20:26;14.60;99.90
7159;DHT22;63175;52.374;13.132;2023-09-30T05:22:54;14.60;99.90
7159;DHT22;63175;52.374;13.132;2023-09-30T05:25:21;14.60;99.90
7159;DHT22;63175;52.374;13.132;2023-09-30T05:27:52;14.60;99.90
7159;DHT22;63175;52.374;13.132;2023-09-30T05:30:19;14.60;99.90
7159;DHT22;63175;52.374;13.132;2023-09-30T05:32:46;14.60;99.90
7159;DHT22;63175;52.374;13.132;2023-09-30T05:35:13;14.60;99.90
7159;DHT22;63175;52.374;13.132;2023-09-30T05:37:42;14.60;99.90
7159;DHT22;63175;52.374;13.132;2023-09-30T05:40:12;14.70;99.90
7159;DHT22;63175;52.374;13.132;2023-09-30T05:42:47;14.80;99.90
7159;DHT22;63175;52.374;13.132;2023-09-30T05:45:15;14.80;99.90
7159;DHT22;63175;52.374;13.132;2023-09-30T05:47:42;14.90;99.90
7159;DHT22;63175;52.374;13.132;2023-09-30T05:50:10;14.90;99.90
7159;DHT22;63175;52.374;13.132;2023-09-30T05:52:40;15.00;99.90
7159;DHT22;63175;52.374;13.132;2023-09-30T05:55:07;15.00;99.90
7159;DHT22;63175;52.374;13.132;2023-09-30T05:57:36;15.10;99.90
7159;DHT22;63175;52.374;13.132;2023-09-30T06:00:04;15.20;99.90
7159;DHT22;63175;52.374;13.132;2023-09-30T06:02:46;15.30;99.90
7159;DHT22;63175;52.374;13.132;2023-09-30T06:05:13;15.40;99.90
7159;DHT22;63175;52.374;13.132;2023-09-30T06:07:41;15.50;99.90
7159;DHT22;63175;52.374;13.132;2023-09-30T06:10:10;15.60;99.90
7159;DHT22;63175;52.374;13.132;2023-09-30T06:12:39;15.70;99.90
7159;DHT22;63175;52.374;13.132;2023-09-30T06:15:08;15.80;99.90
7159;DHT22;63175;52.374;13.132;2023-09-30T06:17:36;15.80;99.90
7159;DHT22;63175;52.374;13.132;2023-09-30T06:20:04;15.90;99.90
7159;DHT22;63175;52.374;13.132;2023-09-30T06:22:35;16.00;99.90
7159;DHT22;63175;52.374;13.132;2023-09-30T06:25:02;16.00;99.90
7159;DHT22;63175;52.374;13.132;2023-09-30T06:27:30;16.00;99.90
7159;DHT22;63175;52.374;13.132;2023-09-30T06:29:58;16.00;99.90
7159;DHT22;63175;52.374;13.132;2023-09-30T06:32:25;16.00;99.90
7159;DHT22;63175;52.374;13.132;2023-09-30T06:34:52;16.10;99.90
7159;DHT22;63175;52.374;13.132;2023-09-30T06:37:19;16.10;99.90
7159;DHT22;63175;52.374;13.132;2023-09-30T06:39:47;16.10;99.90
7159;DHT22;63175;52.374;13.132;2023-09-30T06:42:15;16.10;99.90
7159;DHT22;63175;52.374;13.132;2023-09-30T06:44:42;16.10;99.90
7159;DHT22;63175;52.374;13.132;2023-09-30T06:47:10;16.20;99.90
7159;DHT22;63175;52.374;13.132;2023-09-30T06:49:37;16.20;99.90
7159;DHT22;63175;52.374;13.132;2023-09-30T06:52:04;16.30;99.90
7159;DHT22;63175;52.374;13.132;2023-09-30T06:54:31;16.30;99.90
7159;DHT22;63175;52.374;13.132;2023-09-30T06:56:58;16.30;99.90
7159;DHT22;63175;52.374;13.132;2023-09-30T06:59:25;16.30;99.90
7159;DHT22;63175;52.374;13.132;2023-09-30T07:01:52;16.40;99.90
7159;DHT22;63175;52.374;13.132;2023-09-30T07:04:21;16.40;99.90
7159;DHT22;63175;52.374;13.132;2023-09-30T07:06:48;16.50;99.90
7159;DHT22;63175;52.374;13.132;2023-09-30T07:09:15;16.50;99.90
7159;DHT22;63175;52.374;13.132;2023-09-30T07:11:42;16.60;99.90
7159;DHT22;63175;52.374;13.132;2023-09-30T07:14:09;16.70;99.90
7159;DHT22;63175;52.374;13.132;2023-09-30T07:16:36;16.80;99.90
7159;DHT22;63175;52.374;13.132;2023-09-30T07:19:03;16.90;99.90
7159;DHT22;63175;52.374;13.132;2023-09-30T07:21:32;17.00;99.90
7159;DHT22;63175;52.374;13.132;2023-09-30T07:23:58;17.00;99.90
7159;DHT22;63175;52.374;13.132;2023-09-30T07:26:25;17.00;99.90
7159;DHT22;63175;52.374;13.132;2023-09-30T07:28:53;17.10;99.90
7159;DHT22;63175;52.374;13.132;2023-09-30T07:31:22;17.20;99.90
7159;DHT22;63175;52.374;13.132;2023-09-30T07:33:49;17.20;99.90
7159;DHT22;63175;52.374;13.132;2023-09-30T07:36:16;17.30;99.90
7159;DHT22;63175;52.374;13.132;2023-09-30T07:38:44;17.30;99.90
7159;DHT22;63175;52.374;13.132;2023-09-30T07:41:12;17.50;99.90
7159;DHT22;63175;52.374;13.132;2023-09-30T07:43:39;17.50;99.90
7159;DHT22;63175;52.374;13.132;2023-09-30T07:46:06;17.50;99.90
7159;DHT22;63175;52.374;13.132;2023-09-30T07:48:33;17.40;99.90
7159;DHT22;63175;52.374;13.132;2023-09-30T07:51:00;17.40;99.90
7159;DHT22;63175;52.374;13.132;2023-09-30T07:53:27;17.40;99.90
7159;DHT22;63175;52.374;13.132;2023-09-30T07:55:55;17.30;99.90
7159;DHT22;63175;52.374;13.132;2023-09-30T07:58:22;17.30;99.90
7159;DHT22;63175;52.374;13.132;2023-09-30T08:00:50;17.20;99.90
7159;DHT22;63175;52.374;13.132;2023-09-30T08:03:17;17.20;99.90
7159;DHT22;63175;52.374;13.132;2023-09-30T08:05:44;17.20;99.90
7159;DHT22;63175;52.374;13.132;2023-09-30T08:08:12;17.30;99.90
7159;DHT22;63175;52.374;13.132;2023-09-30T08:10:40;17.40;99.90
7159;DHT22;63175;52.374;13.132;2023-09-30T08:13:08;17.60;99.90
7159;DHT22;63175;52.374;13.132;2023-09-30T08:15:35;17.90;99.90
7159;DHT22;63175;52.374;13.132;2023-09-30T08:18:03;18.20;99.90
7159;DHT22;63175;52.374;13.132;2023-09-30T08:20:31;18.50;99.90
7159;DHT22;63175;52.374;13.132;2023-09-30T08:22:59;18.60;99.90
7159;DHT22;63175;52.374;13.132;2023-09-30T08:25:25;18.60;99.90
7159;DHT22;63175;52.374;13.132;2023-09-30T08:27:52;18.60;99.90
7159;DHT22;63175;52.374;13.132;2023-09-30T08:30:21;18.60;99.90
7159;DHT22;63175;52.374;13.132;2023-09-30T08:32:48;18.60;99.90
7159;DHT22;63175;52.374;13.132;2023-09-30T08:35:15;18.70;99.90
7159;DHT22;63175;52.374;13.132;2023-09-30T08:37:42;18.90;99.90
7159;DHT22;63175;52.374;13.132;2023-09-30T08:40:10;19.30;99.90
7159;DHT22;63175;52.374;13.132;2023-09-30T08:42:39;19.70;99.90
7159;DHT22;63175;52.374;13.132;2023-09-30T08:45:10;19.90;99.90
7159;DHT22;63175;52.374;13.132;2023-09-30T08:47:41;20.00;99.90
7159;DHT22;63175;52.374;13.132;2023-09-30T08:50:09;20.20;99.90
7159;DHT22;63175;52.374;13.132;2023-09-30T08:52:38;20.70;99.90
7159;DHT22;63175;52.374;13.132;2023-09-30T08:55:06;21.50;99.90
7159;DHT22;63175;52.374;13.132;2023-09-30T08:57:37;22.40;99.50
7159;DHT22;63175;52.374;13.132;2023-09-30T09:00:07;23.40;97.60
7159;DHT22;63175;52.374;13.132;2023-09-30T09:02:37;24.30;94.70
7159;DHT22;63175;52.374;13.132;2023-09-30T09:05:06;25.10;92.20
7159;DHT22;63175;52.374;13.132;2023-09-30T09:07:34;25.60;90.10
7159;DHT22;63175;52.374;13.132;2023-09-30T09:10:04;26.30;87.70
7159;DHT22;63175;52.374;13.132;2023-09-30T09:12:33;27.00;83.20
7159;DHT22;63175;52.374;13.132;2023-09-30T09:15:01;27.50;79.00
7159;DHT22;63175;52.374;13.132;2023-09-30T09:17:40;28.00;75.40
7159;DHT22;63175;52.374;13.132;2023-09-30T09:20:11;28.50;71.20
7159;DHT22;63175;52.374;13.132;2023-09-30T09:22:40;29.10;68.00
7159;DHT22;63175;52.374;13.132;2023-09-30T09:25:07;29.70;64.50
7159;DHT22;63175;52.374;13.132;2023-09-30T09:27:34;29.90;61.60
7159;DHT22;63175;52.374;13.132;2023-09-30T09:30:15;30.20;60.10
7159;DHT22;63175;52.374;13.132;2023-09-30T09:32:56;30.30;57.60
7159;DHT22;63175;52.374;13.132;2023-09-30T09:35:26;30.30;56.90
7159;DHT22;63175;52.374;13.132;2023-09-30T09:37:57;30.30;56.10
7159;DHT22;63175;52.374;13.132;2023-09-30T09:40:26;30.40;55.30
7159;DHT22;63175;52.374;13.132;2023-09-30T09:42:54;30.60;55.80
7159;DHT22;63175;52.374;13.132;2023-09-30T09:45:22;31.20;53.90
7159;DHT22;63175;52.374;13.132;2023-09-30T09:47:53;31.80;52.30
7159;DHT22;63175;52.374;13.132;2023-09-30T09:50:21;32.00;51.00
7159;DHT22;63175;52.374;13.132;2023-09-30T09:52:50;31.80;49.20
7159;DHT22;63175;52.374;13.132;2023-09-30T09:55:18;31.20;49.20
7159;DHT22;63175;52.374;13.132;2023-09-30T09:57:45;30.60;50.10
7159;DHT22;63175;52.374;13.132;2023-09-30T10:00:14;30.40;50.30
7159;DHT22;63175;52.374;13.132;2023-09-30T10:02:41;30.40;50.60
7159;DHT22;63175;52.374;13.132;2023-09-30T10:05:09;30.40;49.80
7159;DHT22;63175;52.374;13.132;2023-09-30T10:07:39;30.10;49.70
7159;DHT22;63175;52.374;13.132;2023-09-30T10:10:12;30.30;50.40
7159;DHT22;63175;52.374;13.132;2023-09-30T10:12:40;30.60;49.60
7159;DHT22;63175;52.374;13.132;2023-09-30T10:15:39;30.90;49.10
7159;DHT22;63175;52.374;13.132;2023-09-30T10:18:09;31.00;48.90
7159;DHT22;63175;52.374;13.132;2023-09-30T10:20:38;30.80;47.80
7159;DHT22;63175;52.374;13.132;2023-09-30T10:23:25;30.00;47.70
7159;DHT22;63175;52.374;13.132;2023-09-30T10:26:12;29.00;49.50
7159;DHT22;63175;52.374;13.132;2023-09-30T10:28:41;28.50;50.40
7159;DHT22;63175;52.374;13.132;2023-09-30T10:31:14;28.40;51.30
7159;DHT22;63175;52.374;13.132;2023-09-30T10:34:18;28.60;51.60
7159;DHT22;63175;52.374;13.132;2023-09-30T10:36:46;29.00;51.40
7159;DHT22;63175;52.374;13.132;2023-09-30T10:39:14;29.40;50.00
7159;DHT22;63175;52.374;13.132;2023-09-30T10:41:54;29.60;48.40
7159;DHT22;63175;52.374;13.132;2023-09-30T10:44:33;29.60;48.60
7159;DHT22;63175;52.374;13.132;2023-09-30T10:47:34;29.60;48.60
7159;DHT22;63175;52.374;13.132;2023-09-30T10:49:49;29.90;48.40
7159;DHT22;63175;52.374;13.132;2023-09-30T10:52:22;30.20;47.00
7159;DHT22;63175;52.374;13.132;2023-09-30T10:54:50;29.80;46.60
7159;DHT22;63175;52.374;13.132;2023-09-30T10:57:27;29.40;46.90
7159;DHT22;63175;52.374;13.132;2023-09-30T11:00:07;29.00;47.00
7159;DHT22;63175;52.374;13.132;2023-09-30T11:02:48;29.00;47.90
7159;DHT22;63175;52.374;13.132;2023-09-30T11:05:15;29.50;47.90
7159;DHT22;63175;52.374;13.132;2023-09-30T11:07:41;30.00;46.50
7159;DHT22;63175;52.374;13.132;2023-09-30T11:10:10;30.10;45.40
7159;DHT22;63175;52.374;13.132;2023-09-30T11:12:39;30.50;45.70
7159;DHT22;63175;52.374;13.132;2023-09-30T11:15:19;31.20;45.40
7159;DHT22;63175;52.374;13.132;2023-09-30T11:17:46;31.20;44.60
7159;DHT22;63175;52.374;13.132;2023-09-30T11:20:13;30.70;44.60
7159;DHT22;63175;52.374;13.132;2023-09-30T11:22:40;29.90;44.90
7159;DHT22;63175;52.374;13.132;2023-09-30T11:25:15;29.10;45.90
7159;DHT22;63175;52.374;13.132;2023-09-30T11:27:44;28.90;46.90
7159;DHT22;63175;52.374;13.132;2023-09-30T11:30:13;28.90;47.20
7159;DHT22;63175;52.374;13.132;2023-09-30T11:32:40;29.00;46.90
7159;DHT22;63175;52.374;13.132;2023-09-30T11:35:09;28.90;47.00
7159;DHT22;63175;52.374;13.132;2023-09-30T11:37:36;29.20;46.70
7159;DHT22;63175;52.374;13.132;2023-09-30T11:40:11;29.40;46.10
7159;DHT22;63175;52.374;13.132;2023-09-30T11:42:39;29.80;45.40
7159;DHT22;63175;52.374;13.132;2023-09-30T11:45:20;30.10;44.50
7159;DHT22;63175;52.374;13.132;2023-09-30T11:47:48;30.20;43.90
7159;DHT22;63175;52.374;13.132;2023-09-30T11:50:15;30.20;43.90
7159;DHT22;63175;52.374;13.132;2023-09-30T11:52:44;30.20;43.80
7159;DHT22;63175;52.374;13.132;2023-09-30T11:55:12;30.00;43.60
7159;DHT22;63175;52.374;13.132;2023-09-30T11:57:39;29.80;44.20
7159;DHT22;63175;52.374;13.132;2023-09-30T12:00:07;29.80;44.80
7159;DHT22;63175;52.374;13.132;2023-09-30T12:02:40;29.90;44.80
7159;DHT22;63175;52.374;13.132;2023-09-30T12:05:07;29.80;44.30
7159;DHT22;63175;52.374;13.132;2023-09-30T12:07:37;29.80;44.30
7159;DHT22;63175;52.374;13.132;2023-09-30T12:10:07;29.60;42.50
7159;DHT22;63175;52.374;13.132;2023-09-30T12:12:34;29.30;42.80
7159;DHT22;63175;52.374;13.132;2023-09-30T12:15:01;29.00;43.30
7159;DHT22;63175;52.374;13.132;2023-09-30T12:17:28;28.80;43.10
7159;DHT22;63175;52.374;13.132;2023-09-30T12:19:56;28.50;42.70
7159;DHT22;63175;52.374;13.132;2023-09-30T12:22:23;28.30;43.50
7159;DHT22;63175;52.374;13.132;2023-09-30T12:24:50;28.10;43.60
7159;DHT22;63175;52.374;13.132;2023-09-30T12:27:17;27.90;43.90
7159;DHT22;63175;52.374;13.132;2023-09-30T12:29:44;27.70;44.00
7159;DHT22;63175;52.374;13.132;2023-09-30T12:32:14;27.40;45.00
7159;DHT22;63175;52.374;13.132;2023-09-30T12:34:40;27.40;45.60
7159;DHT22;63175;52.374;13.132;2023-09-30T12:37:09;27.40;45.10
7159;DHT22;63175;52.374;13.132;2023-09-30T12:39:35;27.30;45.40
7159;DHT22;63175;52.374;13.132;2023-09-30T12:42:02;27.30;45.80
7159;DHT22;63175;52.374;13.132;2023-09-30T12:44:34;27.10;45.60
7159;DHT22;63175;52.374;13.132;2023-09-30T12:47:01;27.10;45.80
7159;DHT22;63175;52.374;13.132;2023-09-30T12:49:28;26.90;45.90
7159;DHT22;63175;52.374;13.132;2023-09-30T12:51:55;26.60;46.00
7159;DHT22;63175;52.374;13.132;2023-09-30T12:54:25;26.40;46.60
7159;DHT22;63175;52.374;13.132;2023-09-30T12:56:52;26.30;46.80
7159;DHT22;63175;52.374;13.132;2023-09-30T12:59:19;26.10;47.10
7159;DHT22;63175;52.374;13.132;2023-09-30T13:01:49;25.90;47.30
7159;DHT22;63175;52.374;13.132;2023-09-30T13:04:16;25.70;48.00
7159;DHT22;63175;52.374;13.132;2023-09-30T13:06:44;25.50;48.30
7159;DHT22;63175;52.374;13.132;2023-09-30T13:09:11;25.30;48.50
7159;DHT22;63175;52.374;13.132;2023-09-30T13:11:40;25.10;48.70
7159;DHT22;63175;52.374;13.132;2023-09-30T13:14:07;25.00;48.50
7159;DHT22;63175;52.374;13.132;2023-09-30T13:16:34;24.90;48.20
7159;DHT22;63175;52.374;13.132;2023-09-30T13:19:00;24.70;48.60
7159;DHT22;63175;52.374;13.132;2023-09-30T13:21:28;24.60;48.50
7159;DHT22;63175;52.374;13.132;2023-09-30T13:23:55;24.50;48.90
7159;DHT22;63175;52.374;13.132;2023-09-30T13:26:22;24.50;49.80
7159;DHT22;63175;52.374;13.132;2023-09-30T13:28:51;24.60;49.60
7159;DHT22;63175;52.374;13.132;2023-09-30T13:31:17;24.80;49.50
7159;DHT22;63175;52.374;13.132;2023-09-30T13:33:44;24.90;49.30
7159;DHT22;63175;52.374;13.132;2023-09-30T13:36:13;25.10;48.90
7159;DHT22;63175;52.374;13.132;2023-09-30T13:38:40;25.20;48.80
7159;DHT22;63175;52.374;13.132;2023-09-30T13:41:06;25.20;48.50
7159;DHT22;63175;52.374;13.132;2023-09-30T13:43:33;25.10;48.30
7159;DHT22;63175;52.374;13.132;2023-09-30T13:46:04;25.00;48.30
7159;DHT22;63175;52.374;13.132;2023-09-30T13:48:32;24.90;47.60
7159;DHT22;63175;52.374;13.132;2023-09-30T13:51:04;24.80;47.00
7159;DHT22;63175;52.374;13.132;2023-09-30T13:53:31;24.70;46.60
7159;DHT22;63175;52.374;13.132;2023-09-30T13:55:57;24.70;46.80
7159;DHT22;63175;52.374;13.132;2023-09-30T13:58:24;24.70;47.20
7159;DHT22;63175;52.374;13.132;2023-09-30T14:00:51;24.80;47.50
7159;DHT22;63175;52.374;13.132;2023-09-30T14:03:20;24.90;47.20
7159;DHT22;63175;52.374;13.132;2023-09-30T14:05:46;25.00;47.00
7159;DHT22;63175;52.374;13.132;2023-09-30T14:08:13;25.00;46.70
7159;DHT22;63175;52.374;13.132;2023-09-30T14:10:40;24.80;46.70
7159;DHT22;63175;52.374;13.132;2023-09-30T14:13:07;24.70;46.90
7159;DHT22;63175;52.374;13.132;2023-09-30T14:15:34;24.60;47.20
7159;DHT22;63175;52.374;13.132;2023-09-30T14:18:01;24.40;47.70
7159;DHT22;63175;52.374;13.132;2023-09-30T14:20:29;24.30;48.20
7159;DHT22;63175;52.374;13.132;2023-09-30T14:22:59;24.10;48.50
7159;DHT22;63175;52.374;13.132;2023-09-30T14:25:27;23.90;49.10
7159;DHT22;63175;52.374;13.132;2023-09-30T14:27:54;23.80;49.60
7159;DHT22;63175;52.374;13.132;2023-09-30T14:30:22;23.70;50.10
7159;DHT22;63175;52.374;13.132;2023-09-30T14:32:50;23.60;50.40
7159;DHT22;63175;52.374;13.132;2023-09-30T14:35:17;23.50;51.10
7159;DHT22;63175;52.374;13.132;2023-09-30T14:37:45;23.40;51.90
7159;DHT22;63175;52.374;13.132;2023-09-30T14:40:12;23.30;52.80
7159;DHT22;63175;52.374;13.132;2023-09-30T14:42:39;23.20;53.50
7159;DHT22;63175;52.374;13.132;2023-09-30T14:45:08;23.00;53.70
7159;DHT22;63175;52.374;13.132;2023-09-30T14:47:36;22.90;55.00
7159;DHT22;63175;52.374;13.132;2023-09-30T14:50:06;22.80;54.90
7159;DHT22;63175;52.374;13.132;2023-09-30T14:52:33;22.70;54.80
7159;DHT22;63175;52.374;13.132;2023-09-30T14:55:01;22.50;55.90
7159;DHT22;63175;52.374;13.132;2023-09-30T14:57:28;22.50;56.90
7159;DHT22;63175;52.374;13.132;2023-09-30T14:59:57;22.40;57.90
7159;DHT22;63175;52.374;13.132;2023-09-30T15:02:24;22.30;57.70
7159;DHT22;63175;52.374;13.132;2023-09-30T15:04:51;22.30;58.00
7159;DHT22;63175;52.374;13.132;2023-09-30T15:07:18;22.10;58.30
7159;DHT22;63175;52.374;13.132;2023-09-30T15:09:45;22.10;58.60
7159;DHT22;63175;52.374;13.132;2023-09-30T15:12:13;21.90;58.90
7159;DHT22;63175;52.374;13.132;2023-09-30T15:14:40;21.90;59.20
7159;DHT22;63175;52.374;13.132;2023-09-30T15:17:07;21.70;58.50
7159;DHT22;63175;52.374;13.132;2023-09-30T15:19:34;21.60;58.70
7159;DHT22;63175;52.374;13.132;2023-09-30T15:22:01;21.50;59.00
7159;DHT22;63175;52.374;13.132;2023-09-30T15:24:27;21.40;60.00
7159;DHT22;63175;52.374;13.132;2023-09-30T15:26:54;21.40;60.20
7159;DHT22;63175;52.374;13.132;2023-09-30T15:29:23;21.30;61.10
7159;DHT22;63175;52.374;13.132;2023-09-30T15:31:49;21.30;61.20
7159;DHT22;63175;52.374;13.132;2023-09-30T15:34:16;21.20;61.80
7159;DHT22;63175;52.374;13.132;2023-09-30T15:36:43;21.20;62.20